sensor_id;sensor_type;location;lat;lon;timestamp;P1;durP1;ratioP1;P2;durP2;ratioP2
46407;SDS011;32110;45.724;21.276;2023-06-04T00:00:54;8.07;;;3.30;;
46407;SDS011;32110;45.724;21.276;2023-06-04T00:03:20;6.72;;;3.15;;
46407;SDS011;32110;45.724;21.276;2023-06-04T00:05:45;6.40;;;3.17;;
46407;SDS011;32110;45.724;21.276;2023-06-04T00:08:10;6.78;;;3.47;;
46407;SDS011;32110;45.724;21.276;2023-06-04T00:10:36;11.52;;;3.42;;
46407;SDS011;32110;45.724;21.276;2023-06-04T00:13:01;10.53;;;5.30;;
46407;SDS011;32110;45.724;21.276;2023-06-04T00:15:26;12.80;;;6.47;;
46407;SDS011;32110;45.724;21.276;2023-06-04T00:17:51;15.37;;;6.77;;
46407;SDS011;32110;45.724;21.276;2023-06-04T00:20:17;15.20;;;6.47;;
46407;SDS011;32110;45.724;21.276;2023-06-04T00:22:42;10.85;;;5.80;;
46407;SDS011;32110;45.724;21.276;2023-06-04T00:25:11;15.43;;;6.53;;
46407;SDS011;32110;45.724;21.276;2023-06-04T00:27:36;17.48;;;6.28;;
46407;SDS011;32110;45.724;21.276;2023-06-04T00:30:01;8.60;;;4.68;;
46407;SDS011;32110;45.724;21.276;2023-06-04T00:32:27;9.93;;;3.95;;
46407;SDS011;32110;45.724;21.276;2023-06-04T00:34:56;10.20;;;4.47;;
46407;SDS011;32110;45.724;21.276;2023-06-04T00:37:23;7.93;;;4.10;;
46407;SDS011;32110;45.724;21.276;2023-06-04T00:39:48;9.10;;;3.85;;
46407;SDS011;32110;45.724;21.276;2023-06-04T00:42:14;7.30;;;3.90;;
46407;SDS011;32110;45.724;21.276;2023-06-04T00:44:39;10.30;;;3.75;;
46407;SDS011;32110;45.724;21.276;2023-06-04T00:47:18;10.02;;;4.13;;
46407;SDS011;32110;45.724;21.276;2023-06-04T00:49:45;6.07;;;3.88;;
46407;SDS011;32110;45.724;21.276;2023-06-04T00:52:10;9.90;;;3.75;;
46407;SDS011;32110;45.724;21.276;2023-06-04T00:54:36;7.07;;;3.28;;
46407;SDS011;32110;45.724;21.276;2023-06-04T00:57:02;8.70;;;3.72;;
46407;SDS011;32110;45.724;21.276;2023-06-04T00:59:28;5.47;;;3.28;;
46407;SDS011;32110;45.724;21.276;2023-06-04T01:01:58;7.95;;;3.90;;
46407;SDS011;32110;45.724;21.276;2023-06-04T01:04:34;6.78;;;3.50;;
46407;SDS011;32110;45.724;21.276;2023-06-04T01:07:02;10.20;;;3.75;;
46407;SDS011;32110;45.724;21.276;2023-06-04T01:09:28;10.68;;;3.78;;
46407;SDS011;32110;45.724;21.276;2023-06-04T01:11:53;7.70;;;3.45;;
46407;SDS011;32110;45.724;21.276;2023-06-04T01:14:19;10.43;;;3.95;;
46407;SDS011;32110;45.724;21.276;2023-06-04T01:21:50;10.73;;;3.70;;
46407;SDS011;32110;45.724;21.276;2023-06-04T01:24:18;10.15;;;3.63;;
46407;SDS011;32110;45.724;21.276;2023-06-04T01:26:46;8.98;;;4.30;;
46407;SDS011;32110;45.724;21.276;2023-06-04T01:29:13;10.90;;;3.38;;
46407;SDS011;32110;45.724;21.276;2023-06-04T01:31:38;9.02;;;3.78;;
46407;SDS011;32110;45.724;21.276;2023-06-04T01:34:07;6.60;;;3.90;;
46407;SDS011;32110;45.724;21.276;2023-06-04T01:36:32;7.13;;;3.80;;
46407;SDS011;32110;45.724;21.276;2023-06-04T01:38:58;5.90;;;3.67;;
46407;SDS011;32110;45.724;21.276;2023-06-04T01:41:25;8.82;;;4.32;;
46407;SDS011;32110;45.724;21.276;2023-06-04T01:43:51;9.20;;;4.38;;
46407;SDS011;32110;45.724;21.276;2023-06-04T01:46:16;10.05;;;4.20;;
46407;SDS011;32110;45.724;21.276;2023-06-04T01:48:41;9.07;;;4.63;;
46407;SDS011;32110;45.724;21.276;2023-06-04T01:51:07;7.75;;;3.80;;
46407;SDS011;32110;45.724;21.276;2023-06-04T01:53:32;8.80;;;4.07;;
46407;SDS011;32110;45.724;21.276;2023-06-04T01:55:58;10.30;;;4.10;;
46407;SDS011;32110;45.724;21.276;2023-06-04T01:58:23;9.80;;;4.00;;
46407;SDS011;32110;45.724;21.276;2023-06-04T02:00:51;6.20;;;3.70;;
46407;SDS011;32110;45.724;21.276;2023-06-04T02:03:18;8.98;;;4.03;;
46407;SDS011;32110;45.724;21.276;2023-06-04T02:05:43;8.32;;;3.53;;
46407;SDS011;32110;45.724;21.276;2023-06-04T02:08:11;8.35;;;3.90;;
46407;SDS011;32110;45.724;21.276;2023-06-04T02:10:37;7.30;;;4.35;;
46407;SDS011;32110;45.724;21.276;2023-06-04T02:13:02;8.13;;;4.78;;
46407;SDS011;32110;45.724;21.276;2023-06-04T02:15:29;6.82;;;3.97;;
46407;SDS011;32110;45.724;21.276;2023-06-04T02:17:56;9.18;;;4.55;;
46407;SDS011;32110;45.724;21.276;2023-06-04T02:20:26;9.40;;;4.07;;
46407;SDS011;32110;45.724;21.276;2023-06-04T02:22:53;10.50;;;4.82;;
46407;SDS011;32110;45.724;21.276;2023-06-04T02:25:19;7.63;;;3.83;;
46407;SDS011;32110;45.724;21.276;2023-06-04T02:27:45;8.38;;;3.95;;
46407;SDS011;32110;45.724;21.276;2023-06-04T02:30:10;8.80;;;3.70;;
46407;SDS011;32110;45.724;21.276;2023-06-04T02:32:36;9.20;;;4.20;;
46407;SDS011;32110;45.724;21.276;2023-06-04T02:35:02;7.72;;;4.05;;
46407;SDS011;32110;45.724;21.276;2023-06-04T02:37:28;8.98;;;4.53;;
46407;SDS011;32110;45.724;21.276;2023-06-04T02:39:54;10.48;;;4.40;;
46407;SDS011;32110;45.724;21.276;2023-06-04T02:42:20;7.80;;;4.38;;
46407;SDS011;32110;45.724;21.276;2023-06-04T02:44:45;10.80;;;4.70;;
46407;SDS011;32110;45.724;21.276;2023-06-04T02:47:10;7.05;;;3.75;;
46407;SDS011;32110;45.724;21.276;2023-06-04T02:49:36;10.48;;;4.30;;
46407;SDS011;32110;45.724;21.276;2023-06-04T02:52:01;13.23;;;4.38;;
46407;SDS011;32110;45.724;21.276;2023-06-04T02:54:27;7.28;;;4.15;;
46407;SDS011;32110;45.724;21.276;2023-06-04T02:56:52;12.55;;;4.30;;
46407;SDS011;32110;45.724;21.276;2023-06-04T02:59:18;11.20;;;4.93;;
46407;SDS011;32110;45.724;21.276;2023-06-04T03:01:44;11.80;;;4.78;;
46407;SDS011;32110;45.724;21.276;2023-06-04T03:04:09;9.95;;;4.68;;
46407;SDS011;32110;45.724;21.276;2023-06-04T03:06:39;9.85;;;4.38;;
46407;SDS011;32110;45.724;21.276;2023-06-04T03:09:05;10.82;;;4.68;;
46407;SDS011;32110;45.724;21.276;2023-06-04T03:11:32;8.43;;;4.50;;
46407;SDS011;32110;45.724;21.276;2023-06-04T03:13:57;8.00;;;4.32;;
46407;SDS011;32110;45.724;21.276;2023-06-04T03:16:23;8.90;;;4.40;;
46407;SDS011;32110;45.724;21.276;2023-06-04T03:18:48;7.05;;;4.30;;
46407;SDS011;32110;45.724;21.276;2023-06-04T03:21:13;9.45;;;4.20;;
46407;SDS011;32110;45.724;21.276;2023-06-04T03:23:39;9.23;;;3.88;;
46407;SDS011;32110;45.724;21.276;2023-06-04T03:26:05;14.35;;;5.03;;
46407;SDS011;32110;45.724;21.276;2023-06-04T03:28:32;10.52;;;4.60;;
46407;SDS011;32110;45.724;21.276;2023-06-04T03:30:58;8.15;;;4.10;;
46407;SDS011;32110;45.724;21.276;2023-06-04T03:33:24;9.73;;;4.10;;
46407;SDS011;32110;45.724;21.276;2023-06-04T03:35:50;6.93;;;4.13;;
46407;SDS011;32110;45.724;21.276;2023-06-04T03:38:16;9.05;;;4.28;;
46407;SDS011;32110;45.724;21.276;2023-06-04T03:40:42;8.48;;;4.15;;
46407;SDS011;32110;45.724;21.276;2023-06-04T03:43:07;9.70;;;4.18;;
46407;SDS011;32110;45.724;21.276;2023-06-04T03:45:33;6.80;;;4.30;;
46407;SDS011;32110;45.724;21.276;2023-06-04T03:47:58;10.40;;;4.30;;
46407;SDS011;32110;45.724;21.276;2023-06-04T03:50:23;12.40;;;4.53;;
46407;SDS011;32110;45.724;21.276;2023-06-04T03:52:49;9.60;;;4.10;;
46407;SDS011;32110;45.724;21.276;2023-06-04T03:55:15;9.52;;;4.80;;
46407;SDS011;32110;45.724;21.276;2023-06-04T03:57:40;8.02;;;4.07;;
46407;SDS011;32110;45.724;21.276;2023-06-04T04:00:06;11.43;;;4.38;;
46407;SDS011;32110;45.724;21.276;2023-06-04T04:02:32;8.65;;;4.20;;
46407;SDS011;32110;45.724;21.276;2023-06-04T04:04:57;9.10;;;3.87;;
46407;SDS011;32110;45.724;21.276;2023-06-04T04:07:22;10.10;;;4.10;;
46407;SDS011;32110;45.724;21.276;2023-06-04T04:09:48;9.35;;;4.18;;
46407;SDS011;32110;45.724;21.276;2023-06-04T04:12:13;7.67;;;4.53;;
46407;SDS011;32110;45.724;21.276;2023-06-04T04:14:39;9.60;;;4.63;;
46407;SDS011;32110;45.724;21.276;2023-06-04T04:17:04;9.13;;;4.60;;
46407;SDS011;32110;45.724;21.276;2023-06-04T04:19:30;8.23;;;4.70;;
46407;SDS011;32110;45.724;21.276;2023-06-04T04:21:56;16.15;;;4.60;;
46407;SDS011;32110;45.724;21.276;2023-06-04T04:24:24;11.82;;;4.13;;
46407;SDS011;32110;45.724;21.276;2023-06-04T04:26:51;10.95;;;4.15;;
46407;SDS011;32110;45.724;21.276;2023-06-04T04:29:18;8.43;;;4.85;;
46407;SDS011;32110;45.724;21.276;2023-06-04T04:31:50;9.85;;;4.50;;
46407;SDS011;32110;45.724;21.276;2023-06-04T04:34:16;10.90;;;4.30;;
46407;SDS011;32110;45.724;21.276;2023-06-04T04:36:42;12.75;;;4.85;;
46407;SDS011;32110;45.724;21.276;2023-06-04T04:39:07;13.35;;;5.13;;
46407;SDS011;32110;45.724;21.276;2023-06-04T04:41:33;12.15;;;5.47;;
46407;SDS011;32110;45.724;21.276;2023-06-04T04:44:04;14.47;;;5.47;;
46407;SDS011;32110;45.724;21.276;2023-06-04T04:46:30;12.93;;;5.20;;
46407;SDS011;32110;45.724;21.276;2023-06-04T04:48:55;12.07;;;5.78;;
46407;SDS011;32110;45.724;21.276;2023-06-04T04:51:21;11.97;;;4.93;;
46407;SDS011;32110;45.724;21.276;2023-06-04T04:53:46;14.93;;;5.07;;
46407;SDS011;32110;45.724;21.276;2023-06-04T04:56:12;10.50;;;5.40;;
46407;SDS011;32110;45.724;21.276;2023-06-04T04:58:37;18.05;;;5.28;;
46407;SDS011;32110;45.724;21.276;2023-06-04T05:01:03;13.48;;;5.13;;
46407;SDS011;32110;45.724;21.276;2023-06-04T05:03:28;8.23;;;4.72;;
46407;SDS011;32110;45.724;21.276;2023-06-04T05:05:54;11.48;;;4.80;;
46407;SDS011;32110;45.724;21.276;2023-06-04T05:08:19;12.98;;;4.88;;
46407;SDS011;32110;45.724;21.276;2023-06-04T05:10:45;10.85;;;5.25;;
46407;SDS011;32110;45.724;21.276;2023-06-04T05:13:10;9.82;;;4.50;;
46407;SDS011;32110;45.724;21.276;2023-06-04T05:15:36;8.07;;;4.90;;
46407;SDS011;32110;45.724;21.276;2023-06-04T05:18:04;10.57;;;4.95;;
46407;SDS011;32110;45.724;21.276;2023-06-04T05:20:30;9.20;;;4.82;;
46407;SDS011;32110;45.724;21.276;2023-06-04T05:22:55;9.55;;;4.78;;
46407;SDS011;32110;45.724;21.276;2023-06-04T05:25:21;5.70;;;4.10;;
46407;SDS011;32110;45.724;21.276;2023-06-04T05:27:47;8.70;;;4.30;;
46407;SDS011;32110;45.724;21.276;2023-06-04T05:30:14;7.97;;;4.18;;
46407;SDS011;32110;45.724;21.276;2023-06-04T05:32:40;7.82;;;4.20;;
46407;SDS011;32110;45.724;21.276;2023-06-04T05:35:05;8.25;;;4.88;;
46407;SDS011;32110;45.724;21.276;2023-06-04T05:37:33;7.82;;;4.75;;
46407;SDS011;32110;45.724;21.276;2023-06-04T05:39:59;10.23;;;5.00;;
46407;SDS011;32110;45.724;21.276;2023-06-04T05:42:25;7.25;;;4.30;;
46407;SDS011;32110;45.724;21.276;2023-06-04T05:44:50;8.35;;;4.20;;
46407;SDS011;32110;45.724;21.276;2023-06-04T05:47:15;10.37;;;4.23;;
46407;SDS011;32110;45.724;21.276;2023-06-04T05:49:41;7.05;;;4.65;;
46407;SDS011;32110;45.724;21.276;2023-06-04T05:52:07;9.93;;;5.03;;
46407;SDS011;32110;45.724;21.276;2023-06-04T05:54:32;7.37;;;4.63;;
46407;SDS011;32110;45.724;21.276;2023-06-04T05:56:58;8.82;;;5.00;;
46407;SDS011;32110;45.724;21.276;2023-06-04T05:59:23;8.70;;;4.85;;
46407;SDS011;32110;45.724;21.276;2023-06-04T06:01:49;10.70;;;5.10;;
46407;SDS011;32110;45.724;21.276;2023-06-04T06:04:14;6.93;;;4.60;;
46407;SDS011;32110;45.724;21.276;2023-06-04T06:06:40;10.40;;;4.90;;
46407;SDS011;32110;45.724;21.276;2023-06-04T06:09:09;8.13;;;4.57;;
46407;SDS011;32110;45.724;21.276;2023-06-04T06:11:34;9.57;;;4.50;;
46407;SDS011;32110;45.724;21.276;2023-06-04T06:13:59;11.07;;;4.40;;
46407;SDS011;32110;45.724;21.276;2023-06-04T06:16:24;6.63;;;4.27;;
46407;SDS011;32110;45.724;21.276;2023-06-04T06:18:50;6.60;;;4.77;;
46407;SDS011;32110;45.724;21.276;2023-06-04T06:21:15;8.05;;;4.68;;
46407;SDS011;32110;45.724;21.276;2023-06-04T06:23:40;7.78;;;4.65;;
46407;SDS011;32110;45.724;21.276;2023-06-04T06:26:06;11.68;;;5.40;;
46407;SDS011;32110;45.724;21.276;2023-06-04T06:28:33;7.55;;;4.90;;
46407;SDS011;32110;45.724;21.276;2023-06-04T06:30:58;7.90;;;4.20;;
46407;SDS011;32110;45.724;21.276;2023-06-04T06:33:24;6.20;;;4.60;;
46407;SDS011;32110;45.724;21.276;2023-06-04T06:35:49;10.63;;;4.80;;
46407;SDS011;32110;45.724;21.276;2023-06-04T06:38:14;7.43;;;4.50;;
46407;SDS011;32110;45.724;21.276;2023-06-04T06:40:40;9.33;;;4.40;;
46407;SDS011;32110;45.724;21.276;2023-06-04T06:43:05;9.80;;;4.63;;
46407;SDS011;32110;45.724;21.276;2023-06-04T06:45:30;5.97;;;4.80;;
46407;SDS011;32110;45.724;21.276;2023-06-04T06:47:56;8.18;;;4.15;;
46407;SDS011;32110;45.724;21.276;2023-06-04T06:50:21;7.05;;;4.35;;
46407;SDS011;32110;45.724;21.276;2023-06-04T06:52:47;8.27;;;4.53;;
46407;SDS011;32110;45.724;21.276;2023-06-04T06:55:12;8.02;;;4.82;;
46407;SDS011;32110;45.724;21.276;2023-06-04T06:57:37;7.53;;;4.55;;
46407;SDS011;32110;45.724;21.276;2023-06-04T07:00:03;8.13;;;4.05;;
46407;SDS011;32110;45.724;21.276;2023-06-04T07:02:29;6.63;;;3.90;;
46407;SDS011;32110;45.724;21.276;2023-06-04T07:04:55;6.22;;;4.50;;
46407;SDS011;32110;45.724;21.276;2023-06-04T07:07:20;10.88;;;4.68;;
46407;SDS011;32110;45.724;21.276;2023-06-04T07:09:46;8.07;;;3.83;;
46407;SDS011;32110;45.724;21.276;2023-06-04T07:12:11;5.97;;;4.07;;
46407;SDS011;32110;45.724;21.276;2023-06-04T07:14:36;7.75;;;4.10;;
46407;SDS011;32110;45.724;21.276;2023-06-04T07:17:02;11.15;;;4.35;;
46407;SDS011;32110;45.724;21.276;2023-06-04T07:19:27;9.73;;;4.53;;
46407;SDS011;32110;45.724;21.276;2023-06-04T07:21:53;6.47;;;4.25;;
46407;SDS011;32110;45.724;21.276;2023-06-04T07:24:19;7.10;;;4.18;;
46407;SDS011;32110;45.724;21.276;2023-06-04T07:26:45;9.45;;;4.45;;
46407;SDS011;32110;45.724;21.276;2023-06-04T07:29:10;6.30;;;4.05;;
46407;SDS011;32110;45.724;21.276;2023-06-04T07:31:35;7.15;;;4.18;;
46407;SDS011;32110;45.724;21.276;2023-06-04T07:34:01;6.90;;;4.15;;
46407;SDS011;32110;45.724;21.276;2023-06-04T07:36:26;6.15;;;4.07;;
46407;SDS011;32110;45.724;21.276;2023-06-04T07:38:51;6.50;;;3.78;;
46407;SDS011;32110;45.724;21.276;2023-06-04T07:41:17;7.75;;;4.13;;
46407;SDS011;32110;45.724;21.276;2023-06-04T07:43:43;5.88;;;3.70;;
46407;SDS011;32110;45.724;21.276;2023-06-04T07:46:08;10.35;;;4.72;;
46407;SDS011;32110;45.724;21.276;2023-06-04T07:48:35;5.85;;;4.07;;
46407;SDS011;32110;45.724;21.276;2023-06-04T07:51:00;4.43;;;3.70;;
46407;SDS011;32110;45.724;21.276;2023-06-04T07:53:27;7.13;;;3.88;;
46407;SDS011;32110;45.724;21.276;2023-06-04T07:55:53;9.20;;;4.10;;
46407;SDS011;32110;45.724;21.276;2023-06-04T07:58:19;5.63;;;4.40;;
46407;SDS011;32110;45.724;21.276;2023-06-04T08:00:44;6.80;;;4.03;;
46407;SDS011;32110;45.724;21.276;2023-06-04T08:03:10;6.88;;;3.92;;
46407;SDS011;32110;45.724;21.276;2023-06-04T08:05:35;7.13;;;4.10;;
46407;SDS011;32110;45.724;21.276;2023-06-04T08:08:01;5.72;;;4.00;;
46407;SDS011;32110;45.724;21.276;2023-06-04T08:10:26;5.30;;;4.07;;
46407;SDS011;32110;45.724;21.276;2023-06-04T08:12:52;6.88;;;4.35;;
46407;SDS011;32110;45.724;21.276;2023-06-04T08:15:17;7.80;;;3.65;;
46407;SDS011;32110;45.724;21.276;2023-06-04T08:17:43;6.40;;;3.80;;
46407;SDS011;32110;45.724;21.276;2023-06-04T08:20:08;8.18;;;3.80;;
46407;SDS011;32110;45.724;21.276;2023-06-04T08:22:34;6.65;;;3.83;;
46407;SDS011;32110;45.724;21.276;2023-06-04T08:25:00;7.07;;;3.63;;
46407;SDS011;32110;45.724;21.276;2023-06-04T08:27:26;7.80;;;3.22;;
46407;SDS011;32110;45.724;21.276;2023-06-04T08:29:51;8.05;;;3.42;;
46407;SDS011;32110;45.724;21.276;2023-06-04T08:32:17;7.70;;;3.80;;
46407;SDS011;32110;45.724;21.276;2023-06-04T08:34:43;7.22;;;3.70;;
46407;SDS011;32110;45.724;21.276;2023-06-04T08:37:08;6.65;;;3.72;;
46407;SDS011;32110;45.724;21.276;2023-06-04T08:39:34;5.68;;;3.50;;
46407;SDS011;32110;45.724;21.276;2023-06-04T08:42:00;7.90;;;3.35;;
46407;SDS011;32110;45.724;21.276;2023-06-04T08:44:29;7.25;;;3.67;;
46407;SDS011;32110;45.724;21.276;2023-06-04T08:46:56;5.32;;;3.13;;
46407;SDS011;32110;45.724;21.276;2023-06-04T08:49:33;5.25;;;3.53;;
46407;SDS011;32110;45.724;21.276;2023-06-04T08:52:01;5.05;;;3.13;;
46407;SDS011;32110;45.724;21.276;2023-06-04T08:54:26;5.90;;;3.25;;
46407;SDS011;32110;45.724;21.276;2023-06-04T08:56:53;8.70;;;2.90;;
46407;SDS011;32110;45.724;21.276;2023-06-04T08:59:21;10.43;;;3.28;;
46407;SDS011;32110;45.724;21.276;2023-06-04T09:01:47;4.18;;;2.58;;
46407;SDS011;32110;45.724;21.276;2023-06-04T09:04:13;6.40;;;2.80;;
46407;SDS011;32110;45.724;21.276;2023-06-04T09:06:40;3.08;;;2.75;;
46407;SDS011;32110;45.724;21.276;2023-06-04T09:09:09;5.28;;;2.80;;
46407;SDS011;32110;45.724;21.276;2023-06-04T09:11:55;3.58;;;2.75;;
46407;SDS011;32110;45.724;21.276;2023-06-04T09:14:24;6.30;;;2.92;;
46407;SDS011;32110;45.724;21.276;2023-06-04T09:16:51;5.85;;;3.03;;
46407;SDS011;32110;45.724;21.276;2023-06-04T09:19:18;4.32;;;2.80;;
46407;SDS011;32110;45.724;21.276;2023-06-04T09:24:14;5.45;;;2.85;;
46407;SDS011;32110;45.724;21.276;2023-06-04T09:26:39;7.80;;;2.53;;
46407;SDS011;32110;45.724;21.276;2023-06-04T09:29:05;5.00;;;2.58;;
46407;SDS011;32110;45.724;21.276;2023-06-04T09:31:31;6.28;;;2.60;;
46407;SDS011;32110;45.724;21.276;2023-06-04T09:34:01;6.72;;;2.80;;
46407;SDS011;32110;45.724;21.276;2023-06-04T09:36:30;3.83;;;2.72;;
46407;SDS011;32110;45.724;21.276;2023-06-04T09:38:56;3.90;;;2.42;;
46407;SDS011;32110;45.724;21.276;2023-06-04T09:41:21;3.95;;;2.60;;
46407;SDS011;32110;45.724;21.276;2023-06-04T09:43:47;7.15;;;2.50;;
46407;SDS011;32110;45.724;21.276;2023-06-04T09:48:39;3.65;;;2.40;;
46407;SDS011;32110;45.724;21.276;2023-06-04T09:51:06;4.88;;;2.60;;
46407;SDS011;32110;45.724;21.276;2023-06-04T09:53:32;2.53;;;2.33;;
46407;SDS011;32110;45.724;21.276;2023-06-04T09:55:58;7.63;;;2.75;;
46407;SDS011;32110;45.724;21.276;2023-06-04T09:58:27;5.72;;;2.80;;
46407;SDS011;32110;45.724;21.276;2023-06-04T10:00:54;4.32;;;2.05;;
46407;SDS011;32110;45.724;21.276;2023-06-04T10:03:23;3.92;;;2.20;;
46407;SDS011;32110;45.724;21.276;2023-06-04T10:05:51;4.00;;;2.30;;
46407;SDS011;32110;45.724;21.276;2023-06-04T10:08:18;3.83;;;2.27;;
46407;SDS011;32110;45.724;21.276;2023-06-04T10:10:47;5.73;;;2.53;;
46407;SDS011;32110;45.724;21.276;2023-06-04T10:13:17;5.72;;;2.03;;
46407;SDS011;32110;45.724;21.276;2023-06-04T10:15:43;4.75;;;2.13;;
46407;SDS011;32110;45.724;21.276;2023-06-04T10:18:10;2.70;;;2.03;;
46407;SDS011;32110;45.724;21.276;2023-06-04T10:20:39;3.08;;;2.30;;
46407;SDS011;32110;45.724;21.276;2023-06-04T10:23:06;8.52;;;2.30;;
46407;SDS011;32110;45.724;21.276;2023-06-04T10:25:32;4.55;;;2.50;;
46407;SDS011;32110;45.724;21.276;2023-06-04T10:28:00;3.17;;;2.13;;
46407;SDS011;32110;45.724;21.276;2023-06-04T10:30:26;4.28;;;2.10;;
46407;SDS011;32110;45.724;21.276;2023-06-04T10:32:52;3.85;;;2.40;;
46407;SDS011;32110;45.724;21.276;2023-06-04T10:35:28;3.20;;;2.25;;
46407;SDS011;32110;45.724;21.276;2023-06-04T10:38:03;2.92;;;2.03;;
46407;SDS011;32110;45.724;21.276;2023-06-04T10:40:31;5.05;;;2.15;;
46407;SDS011;32110;45.724;21.276;2023-06-04T10:43:04;5.45;;;2.67;;
46407;SDS011;32110;45.724;21.276;2023-06-04T10:45:33;4.88;;;2.40;;
46407;SDS011;32110;45.724;21.276;2023-06-04T10:47:59;5.07;;;2.63;;
46407;SDS011;32110;45.724;21.276;2023-06-04T10:50:26;3.92;;;2.58;;
46407;SDS011;32110;45.724;21.276;2023-06-04T10:52:52;6.97;;;2.47;;
46407;SDS011;32110;45.724;21.276;2023-06-04T10:55:18;5.70;;;2.40;;
46407;SDS011;32110;45.724;21.276;2023-06-04T11:00:19;3.75;;;2.10;;
46407;SDS011;32110;45.724;21.276;2023-06-04T11:02:54;3.03;;;2.35;;
46407;SDS011;32110;45.724;21.276;2023-06-04T11:05:20;3.50;;;2.35;;
46407;SDS011;32110;45.724;21.276;2023-06-04T11:07:46;4.65;;;2.20;;
46407;SDS011;32110;45.724;21.276;2023-06-04T11:10:14;2.95;;;2.13;;
46407;SDS011;32110;45.724;21.276;2023-06-04T11:12:48;5.15;;;2.30;;
46407;SDS011;32110;45.724;21.276;2023-06-04T11:15:17;2.72;;;2.10;;
46407;SDS011;32110;45.724;21.276;2023-06-04T11:17:55;4.03;;;2.33;;
46407;SDS011;32110;45.724;21.276;2023-06-04T11:20:23;2.58;;;2.00;;
46407;SDS011;32110;45.724;21.276;2023-06-04T11:22:52;4.22;;;2.35;;
46407;SDS011;32110;45.724;21.276;2023-06-04T11:25:19;5.07;;;2.58;;
46407;SDS011;32110;45.724;21.276;2023-06-04T11:27:47;3.13;;;2.10;;
46407;SDS011;32110;45.724;21.276;2023-06-04T11:30:13;3.72;;;2.60;;
46407;SDS011;32110;45.724;21.276;2023-06-04T11:32:39;4.10;;;2.00;;
46407;SDS011;32110;45.724;21.276;2023-06-04T11:35:05;3.40;;;2.17;;
46407;SDS011;32110;45.724;21.276;2023-06-04T11:37:35;3.63;;;2.13;;
46407;SDS011;32110;45.724;21.276;2023-06-04T11:40:02;2.85;;;2.13;;
46407;SDS011;32110;45.724;21.276;2023-06-04T11:42:30;3.33;;;2.10;;
46407;SDS011;32110;45.724;21.276;2023-06-04T11:44:56;5.38;;;2.35;;
46407;SDS011;32110;45.724;21.276;2023-06-04T11:47:22;3.13;;;2.25;;
46407;SDS011;32110;45.724;21.276;2023-06-04T11:49:53;4.95;;;2.10;;
46407;SDS011;32110;45.724;21.276;2023-06-04T11:52:20;2.80;;;2.10;;
46407;SDS011;32110;45.724;21.276;2023-06-04T11:54:45;5.35;;;2.50;;
46407;SDS011;32110;45.724;21.276;2023-06-04T11:57:11;4.70;;;1.90;;
46407;SDS011;32110;45.724;21.276;2023-06-04T11:59:37;4.03;;;1.95;;
46407;SDS011;32110;45.724;21.276;2023-06-04T12:02:03;3.25;;;2.22;;
46407;SDS011;32110;45.724;21.276;2023-06-04T12:04:29;7.97;;;2.10;;
46407;SDS011;32110;45.724;21.276;2023-06-04T12:06:57;2.33;;;2.00;;
46407;SDS011;32110;45.724;21.276;2023-06-04T12:09:24;3.67;;;2.10;;
46407;SDS011;32110;45.724;21.276;2023-06-04T12:12:00;3.92;;;2.05;;
46407;SDS011;32110;45.724;21.276;2023-06-04T12:14:26;3.17;;;2.00;;
46407;SDS011;32110;45.724;21.276;2023-06-04T12:19:48;3.38;;;1.75;;
46407;SDS011;32110;45.724;21.276;2023-06-04T12:22:15;3.47;;;1.80;;
46407;SDS011;32110;45.724;21.276;2023-06-04T12:24:51;5.97;;;2.17;;
46407;SDS011;32110;45.724;21.276;2023-06-04T12:27:18;4.38;;;2.00;;
46407;SDS011;32110;45.724;21.276;2023-06-04T12:32:25;4.07;;;2.10;;
46407;SDS011;32110;45.724;21.276;2023-06-04T12:34:50;3.90;;;1.85;;
46407;SDS011;32110;45.724;21.276;2023-06-04T12:37:16;3.45;;;1.70;;
46407;SDS011;32110;45.724;21.276;2023-06-04T12:39:42;3.03;;;1.70;;
46407;SDS011;32110;45.724;21.276;2023-06-04T12:42:08;7.70;;;1.90;;
46407;SDS011;32110;45.724;21.276;2023-06-04T12:44:37;2.45;;;1.80;;
46407;SDS011;32110;45.724;21.276;2023-06-04T12:47:04;3.58;;;2.20;;
46407;SDS011;32110;45.724;21.276;2023-06-04T12:49:30;6.18;;;1.88;;
46407;SDS011;32110;45.724;21.276;2023-06-04T12:51:55;3.13;;;2.10;;
46407;SDS011;32110;45.724;21.276;2023-06-04T12:54:21;3.70;;;1.83;;
46407;SDS011;32110;45.724;21.276;2023-06-04T12:56:46;4.25;;;1.85;;
46407;SDS011;32110;45.724;21.276;2023-06-04T12:59:12;2.85;;;1.98;;
46407;SDS011;32110;45.724;21.276;2023-06-04T13:01:37;1.75;;;1.40;;
46407;SDS011;32110;45.724;21.276;2023-06-04T13:04:03;5.25;;;1.90;;
46407;SDS011;32110;45.724;21.276;2023-06-04T13:06:29;2.35;;;1.70;;
46407;SDS011;32110;45.724;21.276;2023-06-04T13:08:55;3.47;;;1.80;;
46407;SDS011;32110;45.724;21.276;2023-06-04T13:11:20;2.45;;;1.70;;
46407;SDS011;32110;45.724;21.276;2023-06-04T13:13:46;4.20;;;2.05;;
46407;SDS011;32110;45.724;21.276;2023-06-04T13:16:12;2.90;;;2.00;;
46407;SDS011;32110;45.724;21.276;2023-06-04T13:18:38;3.63;;;1.63;;
46407;SDS011;32110;45.724;21.276;2023-06-04T13:21:03;4.47;;;1.75;;
46407;SDS011;32110;45.724;21.276;2023-06-04T13:23:28;4.80;;;1.63;;
46407;SDS011;32110;45.724;21.276;2023-06-04T13:25:54;4.32;;;1.80;;
46407;SDS011;32110;45.724;21.276;2023-06-04T13:28:19;3.67;;;1.50;;
46407;SDS011;32110;45.724;21.276;2023-06-04T13:30:45;2.67;;;2.10;;
46407;SDS011;32110;45.724;21.276;2023-06-04T13:33:10;3.20;;;1.98;;
46407;SDS011;32110;45.724;21.276;2023-06-04T13:35:36;3.88;;;1.70;;
46407;SDS011;32110;45.724;21.276;2023-06-04T13:38:03;2.60;;;1.48;;
46407;SDS011;32110;45.724;21.276;2023-06-04T13:42:56;6.75;;;1.65;;
46407;SDS011;32110;45.724;21.276;2023-06-04T13:45:21;6.78;;;1.63;;
46407;SDS011;32110;45.724;21.276;2023-06-04T13:47:47;2.00;;;1.58;;
46407;SDS011;32110;45.724;21.276;2023-06-04T13:50:13;2.67;;;1.80;;
46407;SDS011;32110;45.724;21.276;2023-06-04T13:52:39;2.05;;;1.58;;
46407;SDS011;32110;45.724;21.276;2023-06-04T13:55:04;4.57;;;1.77;;
46407;SDS011;32110;45.724;21.276;2023-06-04T13:57:30;7.00;;;2.13;;
46407;SDS011;32110;45.724;21.276;2023-06-04T13:59:56;9.02;;;6.38;;
46407;SDS011;32110;45.724;21.276;2023-06-04T14:02:21;11.40;;;6.88;;
46407;SDS011;32110;45.724;21.276;2023-06-04T14:04:47;8.57;;;4.55;;
46407;SDS011;32110;45.724;21.276;2023-06-04T14:07:12;3.72;;;2.05;;
46407;SDS011;32110;45.724;21.276;2023-06-04T14:09:38;3.42;;;2.00;;
46407;SDS011;32110;45.724;21.276;2023-06-04T14:12:03;7.00;;;1.83;;
46407;SDS011;32110;45.724;21.276;2023-06-04T14:14:29;2.83;;;1.60;;
46407;SDS011;32110;45.724;21.276;2023-06-04T14:17:01;1.98;;;1.60;;
46407;SDS011;32110;45.724;21.276;2023-06-04T14:19:26;4.13;;;1.88;;
46407;SDS011;32110;45.724;21.276;2023-06-04T14:21:52;4.20;;;1.73;;
46407;SDS011;32110;45.724;21.276;2023-06-04T14:24:17;1.55;;;1.40;;
46407;SDS011;32110;45.724;21.276;2023-06-04T14:26:42;3.22;;;1.70;;
46407;SDS011;32110;45.724;21.276;2023-06-04T14:29:08;1.58;;;1.40;;
46407;SDS011;32110;45.724;21.276;2023-06-04T14:31:33;3.17;;;1.65;;
46407;SDS011;32110;45.724;21.276;2023-06-04T14:33:59;2.55;;;2.25;;
46407;SDS011;32110;45.724;21.276;2023-06-04T14:36:24;14.98;;;8.23;;
46407;SDS011;32110;45.724;21.276;2023-06-04T14:38:49;23.98;;;14.43;;
46407;SDS011;32110;45.724;21.276;2023-06-04T14:41:15;9.65;;;6.60;;
46407;SDS011;32110;45.724;21.276;2023-06-04T14:43:40;5.10;;;2.67;;
46407;SDS011;32110;45.724;21.276;2023-06-04T14:46:05;2.20;;;1.90;;